createdAt,value
2022-11-18T00:00:34.045Z,5.90
2022-11-18T00:02:07.233Z,5.90
2022-11-18T00:03:42.638Z,5.90
2022-11-18T00:05:15.842Z,6.00
2022-11-18T00:06:48.905Z,5.90
2022-11-18T00:08:22.221Z,5.90
2022-11-18T00:09:55.315Z,5.90
2022-11-18T00:11:46.221Z,5.90
2022-11-18T00:13:37.463Z,5.90
2022-11-18T00:15:11.733Z,5.90
2022-11-18T00:16:43.842Z,5.80
2022-11-18T00:18:16.987Z,5.80
2022-11-18T00:19:51.380Z,5.90
2022-11-18T00:21:24.444Z,5.90
2022-11-18T00:22:58.032Z,5.80
2022-11-18T00:24:32.773Z,5.80
2022-11-18T00:26:07.193Z,5.80
2022-11-18T00:27:40.245Z,5.80
2022-11-18T00:29:14.198Z,5.80
2022-11-18T00:30:47.385Z,5.70
2022-11-18T00:32:19.473Z,5.70
2022-11-18T00:33:52.852Z,5.70
2022-11-18T00:35:27.266Z,5.70
2022-11-18T00:37:00.369Z,5.60
2022-11-18T00:38:33.988Z,5.60
2022-11-18T00:40:08.358Z,5.60
2022-11-18T00:41:58.942Z,5.60
2022-11-18T00:43:32.197Z,5.60
2022-11-18T00:45:04.677Z,5.60
2022-11-18T00:46:37.790Z,5.50
2022-11-18T00:48:10.846Z,5.60
2022-11-18T00:49:43.916Z,5.60
2022-11-18T00:51:19.540Z,5.50
2022-11-18T00:52:52.611Z,5.50
2022-11-18T00:54:25.682Z,5.50
2022-11-18T00:55:58.786Z,5.50
2022-11-18T00:57:31.946Z,5.50
2022-11-18T00:59:04.253Z,5.50
2022-11-18T01:00:37.342Z,5.50
2022-11-18T01:02:10.453Z,5.50
2022-11-18T01:03:42.568Z,5.50
2022-11-18T01:05:15.977Z,5.50
2022-11-18T01:06:50.383Z,5.50
2022-11-18T01:08:23.817Z,5.50
2022-11-18T01:09:57.368Z,5.50
2022-11-18T01:11:47.710Z,5.40
2022-11-18T01:13:21.493Z,5.50
2022-11-18T01:14:54.610Z,5.50
2022-11-18T01:16:29.506Z,5.50
2022-11-18T01:18:01.836Z,5.50
2022-11-18T01:19:34.932Z,5.40
2022-11-18T01:21:08.067Z,5.40
2022-11-18T01:22:42.611Z,5.40
2022-11-18T01:24:16.210Z,5.40
2022-11-18T01:25:50.624Z,5.40
2022-11-18T01:27:23.716Z,5.40
2022-11-18T01:28:56.664Z,5.40
2022-11-18T01:30:29.744Z,5.40
2022-11-18T01:33:54.873Z,5.40
2022-11-18T01:35:27.931Z,5.40
2022-11-18T01:37:00.106Z,5.40
2022-11-18T01:38:34.504Z,5.40
2022-11-18T01:40:09.911Z,5.40
2022-11-18T01:41:42.948Z,5.40
2022-11-18T01:43:18.271Z,5.40
2022-11-18T01:45:10.525Z,5.40
2022-11-18T01:46:43.627Z,5.30
2022-11-18T01:48:20.967Z,5.40
2022-11-18T01:49:53.539Z,5.40
2022-11-18T01:51:33.724Z,5.40
2022-11-18T01:53:09.864Z,5.40
2022-11-18T01:54:48.487Z,5.40
2022-11-18T01:56:24.428Z,5.40
2022-11-18T01:58:02.853Z,5.40
2022-11-18T01:59:39.643Z,5.40
2022-11-18T02:01:13.119Z,5.50
2022-11-18T02:02:47.107Z,5.40
2022-11-18T02:04:20.248Z,5.40
2022-11-18T02:05:54.914Z,5.40
2022-11-18T02:07:27.467Z,5.50
2022-11-18T02:09:00.940Z,5.40
2022-11-18T02:10:35.538Z,5.50
2022-11-18T02:12:08.711Z,5.50
2022-11-18T02:13:41.860Z,5.50
2022-11-18T02:15:15.225Z,5.50
2022-11-18T02:17:05.287Z,5.40
2022-11-18T02:18:45.794Z,5.50
2022-11-18T02:20:40.031Z,5.40
2022-11-18T02:22:27.511Z,5.50
2022-11-18T02:24:28.424Z,5.40
2022-11-18T02:26:20.637Z,5.40
2022-11-18T02:28:20.931Z,5.40
2022-11-18T02:29:58.226Z,5.40
2022-11-18T02:31:36.398Z,5.40
2022-11-18T02:33:13.184Z,5.40
2022-11-18T02:34:52.875Z,5.50
2022-11-18T02:36:32.471Z,5.50
2022-11-18T02:38:10.569Z,5.50
2022-11-18T02:39:48.930Z,5.50
2022-11-18T02:41:26.466Z,5.50
2022-11-18T02:43:03.379Z,5.40
2022-11-18T02:44:39.333Z,5.40
2022-11-18T02:46:17.561Z,5.40
2022-11-18T02:47:52.667Z,5.40
2022-11-18T02:49:31.664Z,5.40
2022-11-18T02:51:07.143Z,5.40
2022-11-18T02:52:41.811Z,5.40
2022-11-18T02:54:16.474Z,5.30
2022-11-18T02:55:49.452Z,5.30
2022-11-18T02:57:23.789Z,5.30
2022-11-18T02:58:56.815Z,5.30
2022-11-18T03:00:29.966Z,5.30
2022-11-18T03:02:05.323Z,5.30
2022-11-18T03:03:38.731Z,5.30
2022-11-18T03:05:19.269Z,5.30
2022-11-18T03:07:00.721Z,5.30
2022-11-18T03:08:39.592Z,5.30
2022-11-18T03:10:13.118Z,5.30
2022-11-18T03:11:54.628Z,5.20
2022-11-18T03:13:33.584Z,5.30
2022-11-18T03:15:16.367Z,5.30
2022-11-18T03:16:58.289Z,5.30
2022-11-18T03:18:38.255Z,5.40
2022-11-18T03:20:18.960Z,5.30
2022-11-18T03:22:00.963Z,5.30
2022-11-18T03:23:39.539Z,5.30
2022-11-18T03:25:17.881Z,5.30
2022-11-18T03:26:57.158Z,5.30
2022-11-18T03:28:37.357Z,5.30
2022-11-18T03:30:15.278Z,5.30
2022-11-18T03:31:52.184Z,5.30
2022-11-18T03:33:32.456Z,5.30
2022-11-18T03:35:11.556Z,5.30
2022-11-18T03:36:51.793Z,5.30
2022-11-18T03:38:30.533Z,5.30
2022-11-18T03:40:11.697Z,5.30
2022-11-18T03:41:49.641Z,5.30
2022-11-18T03:43:26.516Z,5.30
2022-11-18T03:45:03.561Z,5.30
2022-11-18T03:46:41.188Z,5.30
2022-11-18T03:48:16.529Z,5.30
2022-11-18T03:49:54.775Z,5.30
2022-11-18T03:51:32.676Z,5.30
2022-11-18T03:53:08.597Z,5.30
2022-11-18T03:54:42.838Z,5.30
2022-11-18T03:56:19.154Z,5.30
2022-11-18T03:57:57.432Z,5.30
2022-11-18T03:59:36.585Z,5.30
2022-11-18T04:01:13.571Z,5.30
2022-11-18T04:02:49.986Z,5.30
2022-11-18T04:04:23.469Z,5.30
2022-11-18T04:06:04.280Z,5.30
2022-11-18T04:07:43.816Z,5.40
2022-11-18T04:09:24.358Z,5.30
2022-11-18T04:11:03.239Z,5.30
2022-11-18T04:12:40.959Z,5.20
2022-11-18T04:14:16.792Z,5.20
2022-11-18T04:15:49.926Z,5.20
2022-11-18T04:17:25.183Z,5.30
2022-11-18T04:19:01.451Z,5.20
2022-11-18T04:20:38.011Z,5.30
2022-11-18T04:22:12.696Z,5.30
2022-11-18T04:23:47.144Z,5.30
2022-11-18T04:25:20.201Z,5.30
2022-11-18T04:26:53.244Z,5.30
2022-11-18T04:28:26.342Z,5.30
2022-11-18T04:29:59.380Z,5.30
2022-11-18T04:31:31.860Z,5.30
2022-11-18T04:33:05.229Z,5.30
2022-11-18T04:34:37.337Z,5.30
2022-11-18T04:36:10.860Z,5.30
2022-11-18T04:37:44.381Z,5.30
2022-11-18T04:39:19.291Z,5.30
2022-11-18T04:40:51.588Z,5.30
2022-11-18T04:42:24.632Z,5.30
2022-11-18T04:43:57.872Z,5.30
2022-11-18T04:45:30.879Z,5.40
2022-11-18T04:47:06.429Z,5.30
2022-11-18T04:48:39.641Z,5.30
2022-11-18T04:50:12.722Z,5.30
2022-11-18T04:51:45.566Z,5.40
2022-11-18T04:53:18.805Z,5.30
2022-11-18T04:54:53.696Z,5.30
2022-11-18T04:56:25.886Z,5.40
2022-11-18T04:57:58.933Z,5.40
2022-11-18T04:59:31.612Z,5.40
2022-11-18T05:01:04.708Z,5.40
2022-11-18T05:02:37.811Z,5.40
2022-11-18T05:04:14.535Z,5.40
2022-11-18T05:05:47.604Z,5.40
2022-11-18T05:07:20.689Z,5.40
2022-11-18T05:08:53.059Z,5.40
2022-11-18T05:10:27.519Z,5.50
2022-11-18T05:12:18.874Z,5.50
2022-11-18T05:13:51.198Z,5.50
2022-11-18T05:15:24.884Z,5.50
2022-11-18T05:16:58.455Z,5.50
2022-11-18T05:18:31.513Z,5.50
2022-11-18T05:20:05.249Z,5.50
2022-11-18T05:21:37.615Z,5.50
2022-11-18T05:23:10.710Z,5.50
2022-11-18T05:24:42.776Z,5.50
2022-11-18T05:26:17.404Z,5.50
2022-11-18T05:27:50.444Z,5.50
2022-11-18T05:29:24.388Z,5.40
2022-11-18T05:30:57.448Z,5.40
2022-11-18T05:32:30.522Z,5.30
2022-11-18T05:34:03.771Z,5.30
2022-11-18T05:35:38.440Z,5.30
2022-11-18T05:37:12.134Z,5.30
2022-11-18T05:38:45.698Z,5.30
2022-11-18T05:40:19.315Z,5.30
2022-11-18T05:42:11.155Z,5.30
2022-11-18T05:43:43.194Z,5.30
2022-11-18T05:45:19.315Z,5.30
2022-11-18T05:46:52.374Z,5.30
2022-11-18T05:48:25.245Z,5.30
2022-11-18T05:49:58.272Z,5.30
2022-11-18T05:51:31.326Z,5.20
2022-11-18T05:53:05.474Z,5.20
2022-11-18T05:54:40.635Z,5.20
2022-11-18T05:56:19.066Z,5.20
2022-11-18T05:57:53.539Z,5.20
2022-11-18T05:59:26.563Z,5.20
2022-11-18T06:01:04.217Z,5.10
2022-11-18T06:02:37.442Z,5.10
2022-11-18T06:04:15.456Z,5.10
2022-11-18T06:05:49.171Z,5.10
2022-11-18T06:07:27.693Z,5.00
2022-11-18T06:09:03.875Z,5.00
2022-11-18T06:10:39.534Z,5.00
2022-11-18T06:12:17.824Z,5.00
2022-11-18T06:13:55.244Z,4.90
2022-11-18T06:15:32.357Z,4.90
2022-11-18T06:17:08.195Z,4.90
2022-11-18T06:18:42.359Z,4.90
2022-11-18T06:20:17.495Z,4.90
2022-11-18T06:21:50.943Z,4.80
2022-11-18T06:23:23.602Z,4.80
2022-11-18T06:24:56.786Z,4.80
2022-11-18T06:26:30.127Z,4.80
2022-11-18T06:28:03.781Z,4.80
2022-11-18T06:29:38.224Z,4.70
2022-11-18T06:31:11.315Z,4.70
2022-11-18T06:32:44.382Z,4.70
2022-11-18T06:34:17.413Z,4.60
2022-11-18T06:35:50.528Z,4.60
2022-11-18T06:37:23.615Z,4.70
2022-11-18T06:38:56.912Z,4.60
2022-11-18T06:40:34.453Z,4.60
2022-11-18T06:42:08.035Z,4.70
2022-11-18T06:43:41.507Z,4.60
2022-11-18T06:45:15.310Z,4.60
2022-11-18T06:46:57.193Z,4.60
2022-11-18T06:48:29.448Z,4.60
2022-11-18T06:50:02.541Z,4.60
2022-11-18T06:51:35.628Z,4.60
2022-11-18T06:53:07.674Z,4.50
2022-11-18T06:54:40.765Z,4.60
2022-11-18T06:56:16.165Z,4.60
2022-11-18T06:57:49.259Z,4.50
2022-11-18T06:59:24.467Z,4.40
2022-11-18T07:00:59.286Z,4.40
2022-11-18T07:02:32.391Z,4.40
2022-11-18T07:04:05.907Z,4.40
2022-11-18T07:05:38.983Z,4.30
2022-11-18T07:07:12.322Z,4.30
2022-11-18T07:08:45.657Z,4.30
2022-11-18T07:10:18.883Z,4.20
2022-11-18T07:11:51.953Z,4.20
2022-11-18T07:13:25.065Z,4.10
2022-11-18T07:14:58.088Z,4.20
2022-11-18T07:16:32.581Z,4.10
2022-11-18T07:18:05.789Z,4.10
2022-11-18T07:19:39.807Z,4.10
2022-11-18T07:21:14.203Z,4.10
2022-11-18T07:22:47.284Z,4.10
2022-11-18T07:24:20.326Z,4.20
2022-11-18T07:25:56.015Z,4.20
2022-11-18T07:27:29.088Z,4.20
2022-11-18T07:29:02.456Z,4.20
2022-11-18T07:30:35.508Z,4.20
2022-11-18T07:32:09.966Z,4.10
2022-11-18T07:33:45.092Z,4.00
2022-11-18T07:35:18.899Z,3.90
2022-11-18T07:36:52.057Z,3.80
2022-11-18T07:38:25.151Z,3.70
2022-11-18T07:39:59.738Z,3.70
2022-11-18T07:41:32.957Z,3.70
2022-11-18T07:43:07.271Z,3.80
2022-11-18T07:44:40.707Z,3.80
2022-11-18T07:46:15.810Z,3.70
2022-11-18T07:47:50.331Z,3.70
2022-11-18T07:49:23.374Z,3.70
2022-11-18T07:50:56.456Z,3.70
2022-11-18T07:52:29.490Z,3.70
2022-11-18T07:54:02.727Z,3.60
2022-11-18T07:55:35.779Z,3.50
2022-11-18T07:57:09.921Z,3.50
2022-11-18T07:58:44.170Z,3.50
2022-11-18T08:00:18.153Z,3.40
2022-11-18T08:01:51.293Z,3.30
2022-11-18T08:03:27.167Z,3.30
2022-11-18T08:05:00.300Z,3.30
2022-11-18T08:06:34.928Z,3.40
2022-11-18T08:08:07.983Z,3.30
2022-11-18T08:09:41.106Z,3.30
2022-11-18T08:11:22.659Z,3.30
2022-11-18T08:12:57.334Z,3.20
2022-11-18T08:14:30.388Z,3.20
2022-11-18T08:16:04.418Z,3.10
2022-11-18T08:17:37.512Z,3.10
2022-11-18T08:19:11.943Z,3.10
2022-11-18T08:20:45.768Z,3.10
2022-11-18T08:22:20.726Z,3.10
2022-11-18T08:23:55.521Z,3.20
2022-11-18T08:25:29.343Z,3.20
2022-11-18T08:27:02.430Z,3.10
2022-11-18T08:28:35.669Z,3.20
2022-11-18T08:30:10.269Z,3.20
2022-11-18T08:31:43.304Z,3.10
2022-11-18T08:33:16.364Z,3.10
2022-11-18T08:34:51.511Z,3.00
2022-11-18T08:36:27.557Z,3.00
2022-11-18T08:38:01.021Z,3.10
2022-11-18T08:39:34.123Z,3.10
2022-11-18T08:41:07.483Z,3.10
2022-11-18T08:42:41.111Z,3.20
2022-11-18T08:44:16.187Z,3.20
2022-11-18T08:45:49.258Z,3.30
2022-11-18T08:47:22.333Z,3.20
2022-11-18T08:48:55.527Z,3.30
2022-11-18T08:50:29.970Z,3.20
2022-11-18T08:52:03.042Z,3.20
2022-11-18T08:53:36.064Z,3.20
2022-11-18T08:55:09.725Z,3.10
2022-11-18T08:56:42.845Z,3.10
2022-11-18T08:58:16.042Z,3.30
2022-11-18T08:59:49.068Z,3.40
2022-11-18T09:01:22.502Z,3.40
2022-11-18T09:02:55.703Z,3.30
2022-11-18T09:04:28.867Z,3.30
2022-11-18T09:06:09.080Z,3.30
2022-11-18T09:07:42.260Z,3.30
2022-11-18T09:09:15.368Z,3.50
2022-11-18T09:10:48.598Z,3.40
2022-11-18T09:12:21.805Z,3.40
2022-11-18T09:15:49.274Z,3.40
2022-11-18T09:17:22.431Z,3.40
2022-11-18T09:18:56.811Z,3.40
2022-11-18T09:20:29.904Z,3.40
2022-11-18T09:22:04.950Z,3.30
2022-11-18T09:23:39.229Z,3.30
2022-11-18T09:25:12.321Z,3.20
2022-11-18T09:26:45.697Z,3.20
2022-11-18T09:28:18.780Z,3.20
2022-11-18T09:29:51.853Z,3.10
2022-11-18T09:31:24.945Z,3.20
2022-11-18T09:32:58.386Z,3.20
2022-11-18T09:34:31.464Z,3.30
2022-11-18T09:36:05.011Z,3.30
2022-11-18T09:37:39.460Z,3.20
2022-11-18T09:39:12.500Z,3.20
2022-11-18T09:40:54.831Z,3.20
2022-11-18T09:42:39.865Z,3.20
2022-11-18T09:44:25.533Z,3.10
2022-11-18T09:46:03.891Z,3.00
2022-11-18T09:47:37.495Z,3.10
2022-11-18T09:49:15.029Z,3.10
2022-11-18T09:50:50.409Z,3.00
2022-11-18T09:52:32.773Z,2.90
2022-11-18T09:54:14.034Z,2.90
2022-11-18T09:55:48.168Z,3.00
2022-11-18T09:57:24.049Z,2.80
2022-11-18T09:58:57.953Z,2.90
2022-11-18T10:00:31.739Z,2.80
2022-11-18T10:02:26.572Z,2.80
2022-11-18T10:03:59.725Z,2.90
2022-11-18T10:05:40.369Z,2.80
2022-11-18T10:07:21.880Z,2.80
2022-11-18T10:09:12.132Z,2.80
2022-11-18T10:10:55.677Z,2.80
2022-11-18T10:12:37.327Z,2.70
2022-11-18T10:14:23.202Z,2.70
2022-11-18T10:16:05.843Z,2.70
2022-11-18T10:17:51.366Z,2.60
2022-11-18T10:19:32.479Z,2.60
2022-11-18T10:21:17.982Z,2.60
2022-11-18T10:22:55.310Z,2.50
2022-11-18T10:24:34.555Z,2.40
2022-11-18T10:26:09.019Z,2.40
2022-11-18T10:27:44.593Z,2.30
2022-11-18T10:29:17.882Z,2.30
2022-11-18T10:30:51.434Z,2.30
2022-11-18T10:32:24.962Z,2.30
2022-11-18T10:34:01.958Z,2.30
2022-11-18T10:35:36.976Z,2.30
2022-11-18T10:37:34.491Z,2.30
2022-11-18T10:39:17.228Z,2.10
2022-11-18T10:41:00.639Z,2.10
2022-11-18T10:42:43.139Z,2.10
2022-11-18T10:44:37.645Z,2.10
2022-11-18T10:46:18.414Z,2.00
2022-11-18T10:48:02.623Z,2.10
2022-11-18T10:49:39.916Z,2.10
2022-11-18T10:51:23.410Z,2.10
2022-11-18T10:52:56.698Z,2.10
2022-11-18T10:54:29.810Z,2.00
2022-11-18T10:56:05.028Z,2.00
2022-11-18T10:57:43.398Z,2.00
2022-11-18T10:59:27.529Z,1.90
2022-11-18T11:01:08.169Z,1.90
2022-11-18T11:02:42.534Z,1.80
2022-11-18T11:04:23.783Z,1.90
2022-11-18T11:06:30.121Z,1.90
2022-11-18T11:08:34.512Z,1.90
2022-11-18T11:10:03.757Z,1.90
2022-11-18T11:11:40.216Z,1.80
2022-11-18T11:13:17.908Z,1.70
2022-11-18T11:14:53.327Z,1.80
2022-11-18T11:16:28.719Z,1.80
2022-11-18T11:18:23.273Z,1.90
2022-11-18T11:20:04.877Z,1.90
2022-11-18T11:21:37.931Z,1.90
2022-11-18T11:23:11.668Z,1.90
2022-11-18T11:24:44.952Z,1.90
2022-11-18T11:28:30.066Z,1.80
2022-11-18T11:30:21.695Z,1.90
2022-11-18T11:32:05.648Z,1.90
2022-11-18T11:33:44.951Z,1.80
2022-11-18T11:35:23.418Z,1.80
2022-11-18T11:37:04.702Z,1.80
2022-11-18T11:38:53.268Z,1.70
2022-11-18T11:40:34.788Z,1.70
2022-11-18T11:42:19.768Z,1.60
2022-11-18T11:44:17.312Z,1.60
2022-11-18T11:46:08.701Z,1.70
2022-11-18T11:47:56.913Z,1.80
2022-11-18T11:49:36.878Z,1.80
2022-11-18T11:51:17.239Z,1.80
2022-11-18T11:53:07.230Z,1.80
2022-11-18T11:54:52.839Z,1.70
2022-11-18T11:56:34.122Z,1.70
2022-11-18T11:58:20.545Z,1.60
2022-11-18T12:00:02.888Z,1.60
2022-11-18T12:01:58.192Z,1.60
2022-11-18T12:03:51.416Z,1.60
2022-11-18T12:05:34.148Z,1.80
2022-11-18T12:07:13.995Z,1.70
2022-11-18T12:08:57.512Z,1.60
2022-11-18T12:10:39.028Z,1.60
2022-11-18T12:12:36.535Z,1.50
2022-11-18T12:14:16.960Z,1.50
2022-11-18T12:16:02.169Z,1.60
2022-11-18T12:17:46.029Z,1.60
2022-11-18T12:19:21.495Z,1.70
2022-11-18T12:20:55.504Z,1.80
2022-11-18T12:23:02.044Z,1.90
2022-11-18T12:24:39.569Z,2.00
2022-11-18T12:26:13.066Z,2.10
2022-11-18T12:28:00.819Z,2.20
2022-11-18T12:29:55.172Z,2.20
2022-11-18T12:31:36.892Z,2.40
2022-11-18T12:33:17.920Z,2.40
2022-11-18T12:34:59.712Z,2.40
2022-11-18T12:36:34.946Z,2.40
2022-11-18T12:38:29.871Z,2.50
2022-11-18T12:40:03.030Z,2.40
2022-11-18T12:42:11.735Z,2.40
2022-11-18T12:44:07.536Z,2.20
2022-11-18T12:45:59.187Z,2.00
2022-11-18T12:47:58.471Z,2.00
2022-11-18T12:50:11.647Z,2.10
2022-11-18T12:51:44.885Z,2.10
2022-11-18T12:53:36.315Z,2.00
2022-11-18T12:55:16.783Z,2.00
2022-11-18T12:56:51.382Z,2.00
2022-11-18T12:58:26.019Z,1.90
2022-11-18T12:59:59.257Z,1.70
2022-11-18T13:01:35.360Z,1.80
2022-11-18T13:03:10.038Z,1.90
2022-11-18T13:04:45.984Z,1.80
2022-11-18T13:06:25.531Z,1.80
2022-11-18T13:08:14.934Z,1.60
2022-11-18T13:09:48.869Z,1.60
2022-11-18T13:11:39.946Z,1.50
2022-11-18T13:13:23.271Z,1.50
2022-11-18T13:15:14.170Z,1.40
2022-11-18T13:17:04.793Z,1.40
2022-11-18T17:24:53.971Z,-0.30
2022-11-18T17:26:28.884Z,-0.30
2022-11-18T17:28:01.910Z,-0.30
2022-11-18T17:29:35.053Z,-0.30
2022-11-18T17:31:09.006Z,-0.30
2022-11-18T17:32:42.828Z,-0.50
2022-11-18T17:34:17.740Z,-0.50
2022-11-18T17:36:00.588Z,-0.50
2022-11-18T17:37:33.807Z,-0.50
2022-11-18T17:39:07.310Z,-0.50
2022-11-18T17:40:40.423Z,-0.50
2022-11-18T17:42:15.204Z,-0.40
2022-11-18T17:43:48.278Z,-0.40
2022-11-18T17:45:21.339Z,-0.30
2022-11-18T17:46:54.464Z,-0.30
2022-11-18T17:48:28.917Z,-0.30
2022-11-18T17:50:03.377Z,-0.30
2022-11-18T17:51:36.419Z,-0.30
2022-11-18T17:53:09.497Z,-0.30
2022-11-18T17:54:42.593Z,-0.40
2022-11-18T17:56:15.675Z,-0.40
2022-11-18T17:57:48.711Z,-0.30
2022-11-18T17:59:22.951Z,-0.30
2022-11-18T18:00:56.055Z,-0.30
2022-11-18T18:02:29.144Z,-0.30
2022-11-18T18:04:02.168Z,-0.30
2022-11-18T18:05:36.620Z,-0.30
2022-11-18T18:07:09.943Z,-0.40
2022-11-18T18:08:43.467Z,-0.60
2022-11-18T18:10:16.927Z,-0.30
2022-11-18T18:11:50.520Z,-0.60
2022-11-18T18:13:40.901Z,-0.30
2022-11-18T18:15:13.174Z,-0.40
2022-11-18T18:16:47.837Z,-0.70
2022-11-18T18:18:20.914Z,-0.30
2022-11-18T18:19:53.932Z,-0.30
2022-11-18T18:21:28.828Z,-0.40
2022-11-18T18:23:02.014Z,-0.30
2022-11-18T18:24:35.128Z,-0.30
2022-11-18T18:26:09.646Z,-0.40
2022-11-18T18:27:42.779Z,-0.30
2022-11-18T18:29:15.988Z,-0.30
2022-11-18T18:30:57.767Z,-0.50
2022-11-18T18:32:30.818Z,-0.20
2022-11-18T18:34:04.434Z,-0.40
2022-11-18T18:35:41.233Z,-0.20
2022-11-18T18:37:15.742Z,0.00
2022-11-18T18:38:49.073Z,-0.30
2022-11-18T18:40:22.434Z,-0.40
2022-11-18T18:41:55.483Z,-0.20
2022-11-18T18:43:28.570Z,-0.40
2022-11-18T18:45:18.987Z,-0.30
2022-11-18T18:46:52.272Z,-0.50
2022-11-18T18:48:25.336Z,-0.50
2022-11-18T18:49:58.431Z,-0.40
2022-11-18T18:51:35.450Z,-0.50
2022-11-18T18:53:09.914Z,-0.50
2022-11-18T18:54:42.968Z,-0.50
2022-11-18T18:56:16.086Z,-0.60
2022-11-18T18:57:49.130Z,-0.50
2022-11-18T18:59:22.591Z,-0.50
2022-11-18T19:00:58.420Z,-0.50
2022-11-18T19:02:31.625Z,-0.50
2022-11-18T19:04:07.218Z,-0.50
2022-11-18T19:06:16.816Z,-0.50
2022-11-18T19:07:33.647Z,-0.50
2022-11-18T19:12:37.249Z,-0.60
2022-11-18T19:14:12.359Z,-0.50
2022-11-18T19:17:21.034Z,-0.50
2022-11-18T19:18:54.195Z,-0.30
2022-11-18T19:22:11.873Z,-0.90
2022-11-18T19:23:44.915Z,-0.40
2022-11-18T19:25:19.492Z,-0.60
2022-11-18T19:26:52.518Z,-0.70
2022-11-18T19:28:25.571Z,-0.50
2022-11-18T19:29:59.140Z,-0.70
2022-11-18T19:31:32.608Z,-0.50
2022-11-18T19:33:05.906Z,-0.50
2022-11-18T19:34:39.028Z,0.10
2022-11-18T19:36:12.185Z,-0.60
2022-11-18T19:37:46.805Z,-0.60
2022-11-18T19:39:20.286Z,-0.60
2022-11-18T19:41:00.970Z,-0.60
2022-11-18T19:42:36.146Z,-0.70
2022-11-18T19:44:09.412Z,-0.80
2022-11-18T19:45:51.028Z,-0.90
2022-11-18T19:47:24.717Z,-0.70
2022-11-18T19:48:57.891Z,-0.90
2022-11-18T19:50:30.953Z,-0.70
2022-11-18T19:52:04.051Z,-0.70
2022-11-18T19:53:39.195Z,-0.60
2022-11-18T19:55:12.270Z,-0.70
2022-11-18T19:56:46.724Z,-0.70
2022-11-18T19:58:19.829Z,-0.70
2022-11-18T19:59:52.965Z,-0.70
2022-11-18T20:01:28.523Z,-0.80
2022-11-18T20:03:01.606Z,-0.70
2022-11-18T20:04:34.676Z,-0.70
2022-11-18T20:06:07.284Z,-0.80
2022-11-18T20:07:40.453Z,-0.80
2022-11-18T20:09:14.019Z,-0.80
2022-11-18T20:10:47.139Z,-0.80
2022-11-18T20:12:21.568Z,-1.60
2022-11-18T20:13:54.627Z,-0.80
2022-11-18T20:15:27.667Z,-0.80
2022-11-18T20:17:00.708Z,-0.90
2022-11-18T20:18:34.941Z,-0.90
2022-11-18T20:20:09.521Z,-1.00
2022-11-18T20:21:44.196Z,-0.80
2022-11-18T20:23:17.334Z,-0.80
2022-11-18T20:24:50.374Z,-0.80
2022-11-18T20:26:25.449Z,-0.80
2022-11-18T20:27:59.870Z,-0.80
2022-11-18T20:29:32.956Z,-0.80
2022-11-18T20:31:07.362Z,-0.80
2022-11-18T20:32:40.464Z,-0.80
2022-11-18T20:34:14.898Z,-0.90
2022-11-18T20:35:48.139Z,-0.60
2022-11-18T20:37:25.508Z,-0.80
2022-11-18T20:39:04.110Z,-0.80
2022-11-18T23:38:35.137Z,-1.80
2022-11-18T23:40:09.492Z,-1.70
2022-11-18T23:41:42.568Z,-1.80
2022-11-18T23:43:15.691Z,-1.40
2022-11-18T23:44:52.646Z,-1.80
2022-11-18T23:46:27.527Z,-1.70
2022-11-18T23:48:00.563Z,-1.70
2022-11-18T23:49:33.643Z,-1.90
2022-11-18T23:51:08.603Z,-1.80
2022-11-18T23:52:43.071Z,-1.90
2022-11-18T23:54:17.698Z,-1.90
2022-11-18T23:55:51.114Z,-2.00
2022-11-18T23:57:24.157Z,-2.00
2022-11-18T23:58:56.923Z,-2.10
